Time;durP1;ratioP1;P1;durP2;ratioP2;P2;SDS_P1;SDS_P2;PMS_P1;PMS_P2;Temp;Humidity;BMP_temperature;BMP_pressure;BME280_temperature;BME280_humidity;BME280_pressure;Samples;Min_cycle;Max_cycle;Signal;HPM_P1;HPM_P2
2023/04/07 00:01:23;;;;;;;18.88;11.45;;;6.40;99.90;;;;;;5055368;28;20037;-78
2023/04/07 00:03:48;;;;;;;16.90;10.35;;;6.40;99.90;;;;;;5054933;28;20359;-80
2023/04/07 00:06:14;;;;;;;22.67;12.20;;;6.40;99.90;;;;;;5054556;28;20146;-82
2023/04/07 00:08:40;;;;;;;17.10;10.68;;;6.40;99.90;;;;;;5056509;28;20040;-80
2023/04/07 00:11:07;;;;;;;19.00;11.07;;;6.40;99.90;;;;;;5056529;28;20036;-83
2023/04/07 00:13:33;;;;;;;19.83;11.40;;;6.40;99.90;;;;;;5059121;28;20477;-81
2023/04/07 00:15:58;;;;;;;17.63;10.95;;;6.40;99.90;;;;;;5051933;28;20039;-83
2023/04/07 00:18:24;;;;;;;20.70;11.70;;;6.30;99.90;;;;;;5056367;28;20096;-80
2023/04/07 00:20:55;;;;;;;19.15;10.88;;;6.30;99.90;;;;;;5054473;28;20120;-81
2023/04/07 00:23:24;;;;;;;16.55;11.02;;;6.30;99.90;;;;;;5048419;28;20017;-85
2023/04/07 00:25:53;;;;;;;21.42;11.00;;;6.30;99.90;;;;;;5050142;28;20104;-82
2023/04/07 00:28:18;;;;;;;25.80;11.55;;;6.30;99.90;;;;;;5053501;28;20017;-84
2023/04/07 00:30:44;;;;;;;20.35;10.63;;;6.30;99.90;;;;;;5055470;28;20044;-83
2023/04/07 00:33:11;;;;;;;15.50;10.00;;;6.40;99.90;;;;;;5058562;28;20032;-83
2023/04/07 00:35:36;;;;;;;15.40;9.82;;;6.30;99.90;;;;;;5055275;28;20039;-81
2023/04/07 00:38:02;;;;;;;21.73;10.68;;;6.40;99.90;;;;;;5053727;28;20432;-81
2023/04/07 00:40:28;;;;;;;20.42;9.70;;;6.40;99.90;;;;;;5056222;28;20094;-83
2023/04/07 00:42:53;;;;;;;21.95;11.27;;;6.40;99.90;;;;;;5051763;28;20025;-83
2023/04/07 00:45:19;;;;;;;16.48;10.32;;;6.40;99.90;;;;;;5057160;28;20020;-82
2023/04/07 00:47:47;;;;;;;15.77;9.82;;;6.40;99.90;;;;;;5056999;28;20021;-84
2023/04/07 00:50:13;;;;;;;19.17;10.18;;;6.40;99.90;;;;;;5057580;28;20481;-84
2023/04/07 00:52:39;;;;;;;18.60;10.80;;;6.40;99.90;;;;;;5056452;28;20036;-82
2023/04/07 00:55:05;;;;;;;13.45;9.55;;;6.40;99.90;;;;;;5057971;28;20021;-82
2023/04/07 00:57:30;;;;;;;22.30;10.70;;;6.40;99.90;;;;;;5056087;28;20448;-82
2023/04/07 00:59:56;;;;;;;21.17;11.50;;;6.40;99.90;;;;;;5055887;28;20029;-84
2023/04/07 01:02:28;;;;;;;21.85;10.85;;;6.40;99.90;;;;;;5059999;28;20412;-83
2023/04/07 01:05:04;;;;;;;17.80;9.85;;;6.30;99.90;;;;;;5059070;28;20033;-83
2023/04/07 01:08:12;;;;;;;14.80;9.70;;;6.30;99.90;;;;;;5058543;28;20032;-84
2023/04/07 01:10:52;;;;;;;14.98;10.07;;;6.40;99.90;;;;;;5062149;28;20370;-82
2023/04/07 01:13:24;;;;;;;16.88;9.38;;;6.30;99.90;;;;;;5049214;28;20112;-82
2023/04/07 01:15:55;;;;;;;20.02;10.75;;;6.40;99.90;;;;;;5056076;28;20037;-83
2023/04/07 01:18:26;;;;;;;19.30;9.15;;;6.40;99.90;;;;;;5056317;28;20040;-82
2023/04/07 01:20:59;;;;;;;16.63;9.68;;;6.40;99.90;;;;;;5065944;28;20036;-84
2023/04/07 01:23:46;;;;;;;16.58;9.02;;;6.40;99.90;;;;;;5057368;28;20147;-82
2023/04/07 01:26:23;;;;;;;18.05;8.80;;;6.40;99.90;;;;;;5054283;28;20028;-82
2023/04/07 01:29:14;;;;;;;18.50;9.85;;;6.40;99.90;;;;;;5061606;28;20033;-83
2023/04/07 01:31:40;;;;;;;14.13;9.40;;;6.40;99.90;;;;;;5059310;28;20016;-83
2023/04/07 01:34:10;;;;;;;20.13;9.90;;;6.40;99.90;;;;;;5051665;28;20106;-83
2023/04/07 01:36:35;;;;;;;15.43;8.68;;;6.40;99.90;;;;;;5054480;28;20601;-82
2023/04/07 01:39:02;;;;;;;15.82;10.38;;;6.30;99.90;;;;;;5049889;28;20099;-82
2023/04/07 01:41:28;;;;;;;16.90;10.43;;;6.30;99.90;;;;;;5060645;28;20498;-81
2023/04/07 01:43:55;;;;;;;18.23;10.50;;;6.30;99.90;;;;;;5056481;28;20033;-82
2023/04/07 01:46:21;;;;;;;18.02;10.73;;;6.20;99.90;;;;;;5056633;28;20024;-82
2023/04/07 01:48:48;;;;;;;17.33;10.93;;;6.00;99.90;;;;;;5055350;28;20111;-84
2023/04/07 01:51:17;;;;;;;16.92;11.00;;;5.80;99.90;;;;;;5056865;28;20070;-81
2023/04/07 01:53:44;;;;;;;17.23;11.57;;;5.60;99.90;;;;;;5060537;28;20422;-82
2023/04/07 01:56:10;;;;;;;17.67;10.77;;;5.40;99.90;;;;;;5059963;28;20097;-82
2023/04/07 01:58:36;;;;;;;18.60;10.77;;;5.30;99.90;;;;;;5054092;28;20132;-82
2023/04/07 02:01:02;;;;;;;17.17;10.68;;;5.20;99.90;;;;;;5057777;28;20058;-83
2023/04/07 02:03:43;;;;;;;19.70;11.45;;;5.10;99.90;;;;;;5055599;28;20115;-82
2023/04/07 02:06:13;;;;;;;18.95;12.27;;;5.10;99.90;;;;;;5058399;28;20443;-83
2023/04/07 02:08:44;;;;;;;21.85;11.75;;;5.10;99.90;;;;;;5056451;28;20021;-82
2023/04/07 02:11:12;;;;;;;18.50;11.32;;;5.00;99.90;;;;;;5057293;28;20357;-82
2023/04/07 02:13:40;;;;;;;18.35;11.45;;;4.90;99.90;;;;;;5056790;28;20021;-82
2023/04/07 02:16:07;;;;;;;27.13;12.82;;;4.90;99.90;;;;;;5063931;28;20032;-83
2023/04/07 02:18:33;;;;;;;20.08;11.90;;;4.70;99.90;;;;;;5057929;28;20086;-82
2023/04/07 02:21:01;;;;;;;21.42;12.02;;;4.70;99.90;;;;;;5053462;28;20029;-82
2023/04/07 02:23:27;;;;;;;18.52;11.75;;;4.60;99.90;;;;;;5053520;28;20393;-82
2023/04/07 02:25:57;;;;;;;20.98;12.00;;;4.40;99.90;;;;;;5053072;28;20037;-82
2023/04/07 02:28:22;;;;;;;23.10;13.52;;;4.20;99.90;;;;;;5046521;28;20036;-82
2023/04/07 02:30:48;;;;;;;18.80;12.35;;;4.10;99.90;;;;;;5055728;28;20390;-82
2023/04/07 02:33:14;;;;;;;19.73;12.15;;;4.00;99.90;;;;;;5058998;28;20035;-82
2023/04/07 02:35:40;;;;;;;16.42;11.18;;;3.90;99.90;;;;;;5059118;28;20024;-82
2023/04/07 02:38:05;;;;;;;18.60;12.20;;;3.80;99.90;;;;;;5063199;28;20052;-82
2023/04/07 02:40:31;;;;;;;19.00;12.73;;;3.80;99.90;;;;;;5054418;28;20057;-83
2023/04/07 02:42:56;;;;;;;20.08;13.10;;;3.60;99.90;;;;;;5056022;28;20041;-82
2023/04/07 02:45:22;;;;;;;17.52;11.95;;;3.50;99.90;;;;;;5055692;28;20051;-82
2023/04/07 02:47:47;;;;;;;17.33;11.57;;;3.40;99.90;;;;;;5047107;28;20040;-82
2023/04/07 02:50:14;;;;;;;22.38;13.40;;;3.40;99.90;;;;;;5053560;28;20079;-82
2023/04/07 02:52:39;;;;;;;17.48;12.07;;;3.40;99.90;;;;;;5056637;28;20036;-82
2023/04/07 02:55:08;;;;;;;21.35;13.63;;;3.30;99.90;;;;;;5058586;28;20112;-82
2023/04/07 02:57:34;;;;;;;21.63;13.15;;;3.30;99.90;;;;;;5056688;28;20039;-81
2023/04/07 03:00:00;;;;;;;20.80;12.70;;;3.30;99.90;;;;;;5054419;28;20033;-82
2023/04/07 03:02:25;;;;;;;27.30;14.10;;;3.20;99.90;;;;;;5056380;28;20044;-81
2023/04/07 03:04:52;;;;;;;19.38;11.88;;;3.10;99.90;;;;;;5055172;28;20032;-82
2023/04/07 03:07:17;;;;;;;21.02;12.32;;;3.10;99.90;;;;;;5055678;28;20029;-82
2023/04/07 03:09:43;;;;;;;20.80;13.52;;;3.10;99.90;;;;;;5052067;28;20029;-83
2023/04/07 03:12:09;;;;;;;22.73;13.75;;;3.10;99.90;;;;;;5056404;28;20040;-82
2023/04/07 03:14:36;;;;;;;22.40;13.25;;;3.10;99.90;;;;;;5057904;28;20039;-82
2023/04/07 03:17:02;;;;;;;23.52;13.43;;;3.10;99.90;;;;;;5055428;28;20036;-82
2023/04/07 03:19:28;;;;;;;21.17;13.50;;;3.10;99.90;;;;;;5055828;28;20107;-83
2023/04/07 03:21:53;;;;;;;22.67;13.98;;;3.10;99.90;;;;;;5054453;28;20135;-83
2023/04/07 03:24:25;;;;;;;24.42;14.00;;;3.10;99.90;;;;;;5052029;28;20051;-82
2023/04/07 03:26:51;;;;;;;24.30;14.00;;;3.00;99.90;;;;;;5055009;28;20036;-82
2023/04/07 03:29:17;;;;;;;21.17;13.48;;;3.00;99.90;;;;;;5053276;28;20033;-83
2023/04/07 03:31:43;;;;;;;23.13;14.77;;;2.90;99.90;;;;;;5054954;28;20024;-82
2023/04/07 03:34:09;;;;;;;23.38;13.82;;;2.90;99.90;;;;;;5052239;28;20029;-83
2023/04/07 03:36:34;;;;;;;19.83;13.40;;;2.90;99.90;;;;;;5054036;28;20048;-82
2023/04/07 03:39:00;;;;;;;26.42;13.75;;;2.80;99.90;;;;;;5051505;28;20058;-82
2023/04/07 03:41:26;;;;;;;24.80;14.77;;;2.70;99.90;;;;;;5053602;28;20079;-82
2023/04/07 03:43:52;;;;;;;27.15;13.27;;;2.70;99.90;;;;;;5054872;28;20473;-82
2023/04/07 03:46:20;;;;;;;18.73;11.43;;;2.60;99.90;;;;;;5055162;28;20035;-82
2023/04/07 03:48:46;;;;;;;27.27;14.98;;;2.60;99.90;;;;;;5054758;28;20400;-81
2023/04/07 03:51:12;;;;;;;20.48;13.43;;;2.60;99.90;;;;;;5054215;28;20029;-82
2023/04/07 03:53:37;;;;;;;20.95;12.85;;;2.60;99.90;;;;;;5054853;28;20025;-82
2023/04/07 03:56:03;;;;;;;24.10;14.73;;;2.50;99.90;;;;;;5055162;28;20040;-82
2023/04/07 03:58:29;;;;;;;25.85;14.27;;;2.50;99.90;;;;;;5056442;28;20398;-82
2023/04/07 04:00:56;;;;;;;30.00;14.32;;;2.50;99.90;;;;;;5047026;28;20111;-82
2023/04/07 04:03:21;;;;;;;21.73;13.93;;;2.60;99.90;;;;;;5055425;28;20032;-82
2023/04/07 04:05:47;;;;;;;26.27;14.60;;;2.60;99.90;;;;;;5055195;28;20082;-82
2023/04/07 04:08:13;;;;;;;23.88;14.35;;;2.50;99.90;;;;;;5055171;28;20025;-82
2023/04/07 04:10:39;;;;;;;29.38;15.95;;;2.50;99.90;;;;;;5054265;28;20055;-82
2023/04/07 04:13:06;;;;;;;17.75;13.18;;;2.40;99.90;;;;;;5053153;28;20025;-82
2023/04/07 04:15:32;;;;;;;19.85;14.05;;;2.40;99.90;;;;;;5051737;28;20025;-82
2023/04/07 04:17:58;;;;;;;24.35;14.93;;;2.40;99.90;;;;;;5059675;28;20036;-82
2023/04/07 04:20:24;;;;;;;25.95;15.35;;;2.40;99.90;;;;;;5053285;28;20536;-83
2023/04/07 04:22:51;;;;;;;28.98;15.32;;;2.40;99.90;;;;;;5059754;28;20040;-82
2023/04/07 04:25:17;;;;;;;24.23;15.05;;;2.30;99.90;;;;;;5052154;28;20485;-82
2023/04/07 04:27:43;;;;;;;29.52;15.77;;;2.30;99.90;;;;;;5057922;28;20468;-82
2023/04/07 04:30:08;;;;;;;28.38;16.20;;;2.20;99.90;;;;;;5049922;28;20062;-82
2023/04/07 04:32:34;;;;;;;24.25;15.48;;;2.20;99.90;;;;;;5057538;28;20403;-82
2023/04/07 04:35:00;;;;;;;24.35;15.02;;;2.20;99.90;;;;;;5048393;28;20474;-82
2023/04/07 04:37:29;;;;;;;22.52;15.23;;;2.20;99.90;;;;;;5064363;28;20033;-82
2023/04/07 04:39:54;;;;;;;23.17;15.27;;;2.10;99.90;;;;;;5050457;28;20059;-82
2023/04/07 04:42:20;;;;;;;24.45;15.48;;;2.20;99.90;;;;;;5054652;28;20045;-82
2023/04/07 04:44:46;;;;;;;31.17;17.15;;;2.20;99.90;;;;;;5057670;28;20557;-82
2023/04/07 04:47:11;;;;;;;30.02;16.75;;;2.10;99.90;;;;;;5064070;28;20039;-82
2023/04/07 04:49:37;;;;;;;29.83;16.50;;;2.10;99.90;;;;;;5057623;28;20079;-82
2023/04/07 04:52:02;;;;;;;23.45;14.90;;;2.10;99.90;;;;;;5056637;28;20032;-82
2023/04/07 04:54:28;;;;;;;24.88;15.35;;;2.10;99.90;;;;;;5059762;28;20033;-82
2023/04/07 04:56:56;;;;;;;29.10;17.50;;;2.10;99.90;;;;;;5056385;28;20049;-82
2023/04/07 04:59:22;;;;;;;26.92;17.25;;;2.10;99.90;;;;;;5057060;28;20060;-82
2023/04/07 05:01:47;;;;;;;27.48;17.30;;;2.10;99.90;;;;;;5058236;28;20769;-82
2023/04/07 05:04:13;;;;;;;29.17;15.43;;;2.10;99.90;;;;;;5057357;28;20056;-82
2023/04/07 05:06:39;;;;;;;23.63;16.02;;;2.10;99.90;;;;;;5057836;28;20049;-82
2023/04/07 05:09:04;;;;;;;22.05;16.27;;;2.10;99.90;;;;;;5059942;28;20025;-82
2023/04/07 05:11:30;;;;;;;34.67;18.65;;;2.10;99.90;;;;;;5058276;28;20036;-82
2023/04/07 05:13:56;;;;;;;26.75;16.67;;;2.20;99.90;;;;;;5055000;28;20056;-82
2023/04/07 05:16:21;;;;;;;22.63;15.68;;;2.20;99.90;;;;;;5064852;28;20473;-82
2023/04/07 05:18:47;;;;;;;24.15;15.90;;;2.20;99.90;;;;;;5058516;28;20029;-82
2023/04/07 05:21:12;;;;;;;27.63;16.45;;;2.20;99.90;;;;;;5055733;28;20060;-81
2023/04/07 05:23:38;;;;;;;27.77;17.98;;;2.20;99.90;;;;;;5051037;28;20029;-82
2023/04/07 05:26:03;;;;;;;28.02;16.58;;;2.30;99.90;;;;;;5048607;28;20025;-82
2023/04/07 05:28:29;;;;;;;24.65;16.13;;;2.30;99.90;;;;;;5058755;28;20029;-82
2023/04/07 05:30:55;;;;;;;25.38;15.50;;;2.30;99.90;;;;;;5056247;28;20381;-82
2023/04/07 05:33:21;;;;;;;31.95;17.55;;;2.40;99.90;;;;;;5056747;28;20036;-82
2023/04/07 05:35:47;;;;;;;26.38;16.60;;;2.40;99.90;;;;;;5057262;28;20086;-82
2023/04/07 05:38:13;;;;;;;27.05;17.73;;;2.50;99.90;;;;;;5056562;28;20052;-81
2023/04/07 05:40:42;;;;;;;29.13;17.42;;;2.60;99.90;;;;;;5056385;28;20494;-82
2023/04/07 05:43:07;;;;;;;29.00;18.38;;;2.70;99.90;;;;;;5057012;28;20524;-81
2023/04/07 05:45:33;;;;;;;28.33;17.60;;;2.80;99.90;;;;;;5055568;28;20029;-82
2023/04/07 05:47:58;;;;;;;32.75;17.27;;;2.80;99.90;;;;;;5055670;28;20355;-81
2023/04/07 05:50:24;;;;;;;31.80;18.35;;;2.90;99.90;;;;;;5060068;28;20111;-81
2023/04/07 05:52:51;;;;;;;24.23;15.90;;;3.00;99.90;;;;;;5058562;28;20017;-82
2023/04/07 05:55:17;;;;;;;27.05;16.13;;;3.10;99.90;;;;;;5057899;28;20028;-82
2023/04/07 05:57:42;;;;;;;31.38;16.08;;;3.20;99.90;;;;;;5055796;28;20078;-82
2023/04/07 06:00:09;;;;;;;22.77;15.68;;;3.30;99.90;;;;;;5060000;28;20025;-82
2023/04/07 06:02:35;;;;;;;25.27;15.50;;;3.30;99.90;;;;;;5057428;28;20044;-81
2023/04/07 06:05:01;;;;;;;27.92;17.65;;;3.40;99.90;;;;;;5054449;28;20037;-82
2023/04/07 06:07:26;;;;;;;28.90;18.25;;;3.50;99.90;;;;;;5055550;28;20381;-82
2023/04/07 06:09:55;;;;;;;27.83;15.73;;;3.60;99.90;;;;;;5053991;28;20424;-82
2023/04/07 06:12:21;;;;;;;28.75;18.42;;;3.60;99.90;;;;;;5053756;28;20044;-82
2023/04/07 06:14:54;;;;;;;32.35;18.10;;;3.70;99.90;;;;;;5048422;28;20025;-81
2023/04/07 06:17:19;;;;;;;25.92;16.77;;;3.80;99.90;;;;;;5059058;28;20085;-82
2023/04/07 06:19:48;;;;;;;27.50;16.90;;;3.90;99.90;;;;;;5057068;28;20024;-82
2023/04/07 06:22:14;;;;;;;28.27;17.17;;;3.90;99.90;;;;;;5055364;28;20112;-81
2023/04/07 06:24:40;;;;;;;26.88;16.52;;;4.00;99.90;;;;;;5051397;28;20286;-82
2023/04/07 06:27:05;;;;;;;28.85;18.08;;;4.10;99.90;;;;;;5057788;28;20013;-82
2023/04/07 06:29:35;;;;;;;24.52;16.70;;;4.10;99.90;;;;;;5059143;28;20066;-81
2023/04/07 06:32:02;;;;;;;29.83;17.67;;;4.20;99.90;;;;;;5056537;28;20119;-82
2023/04/07 06:34:28;;;;;;;24.83;15.93;;;4.20;99.90;;;;;;5050722;28;20048;-82
2023/04/07 06:36:54;;;;;;;27.10;17.40;;;4.20;99.90;;;;;;5057201;28;20119;-82
2023/04/07 06:39:20;;;;;;;29.45;17.20;;;4.30;99.90;;;;;;5057807;28;20078;-81
2023/04/07 06:41:45;;;;;;;28.77;14.93;;;4.30;99.90;;;;;;5057513;28;20098;-82
2023/04/07 06:44:11;;;;;;;22.88;15.75;;;4.30;99.90;;;;;;5046249;28;20553;-82
2023/04/07 06:46:38;;;;;;;22.83;15.45;;;4.30;99.90;;;;;;5055614;28;20036;-82
2023/04/07 06:49:03;;;;;;;22.55;14.38;;;4.40;99.90;;;;;;5058351;28;20530;-82
2023/04/07 06:51:30;;;;;;;27.15;14.98;;;4.40;99.90;;;;;;5052037;28;20120;-82
2023/04/07 06:53:56;;;;;;;30.10;17.20;;;4.40;99.90;;;;;;5056174;28;20082;-82
2023/04/07 06:56:22;;;;;;;32.65;18.83;;;4.40;99.90;;;;;;5054293;28;20028;-82
2023/04/07 06:58:48;;;;;;;27.58;18.20;;;4.50;99.90;;;;;;5058180;28;20039;-81
2023/04/07 07:01:13;;;;;;;34.13;21.08;;;4.40;99.90;;;;;;5054955;28;20478;-80
2023/04/07 07:03:39;;;;;;;37.53;20.88;;;4.50;99.90;;;;;;5054365;28;20051;-82
2023/04/07 07:06:05;;;;;;;34.75;19.38;;;4.50;99.90;;;;;;5054969;28;20031;-81
2023/04/07 07:08:33;;;;;;;32.60;18.65;;;4.50;99.90;;;;;;5059117;28;20067;-81
2023/04/07 07:10:59;;;;;;;39.35;22.90;;;4.50;99.90;;;;;;5055472;28;20498;-81
2023/04/07 07:13:26;;;;;;;47.90;25.15;;;4.50;99.90;;;;;;5057876;28;20032;-82
2023/04/07 07:15:53;;;;;;;40.17;24.45;;;4.60;99.90;;;;;;5053509;28;20020;-82
2023/04/07 07:18:18;;;;;;;43.10;25.67;;;4.60;99.90;;;;;;5055472;28;20031;-82
2023/04/07 07:20:44;;;;;;;31.85;20.30;;;4.60;99.90;;;;;;5058704;28;20425;-82
2023/04/07 07:23:10;;;;;;;39.22;23.30;;;4.60;99.90;;;;;;5055433;28;20035;-82
2023/04/07 07:25:35;;;;;;;43.08;24.55;;;4.60;99.90;;;;;;5051185;28;20085;-81
2023/04/07 07:28:01;;;;;;;42.28;25.48;;;4.60;99.90;;;;;;5052818;28;20491;-81
2023/04/07 07:30:26;;;;;;;42.85;27.08;;;4.70;99.90;;;;;;5052679;28;20106;-82
2023/04/07 07:32:53;;;;;;;46.58;26.73;;;4.80;99.90;;;;;;5057067;28;20444;-82
2023/04/07 07:35:20;;;;;;;39.45;25.50;;;4.80;99.90;;;;;;5046988;28;20024;-82
2023/04/07 07:37:46;;;;;;;42.83;25.55;;;4.80;99.90;;;;;;5053187;28;20102;-82
2023/04/07 07:40:12;;;;;;;39.20;23.45;;;4.80;99.90;;;;;;5052537;28;20045;-82
2023/04/07 07:42:38;;;;;;;39.47;24.10;;;4.90;99.90;;;;;;5052561;28;20398;-82
2023/04/07 07:45:04;;;;;;;41.13;23.77;;;4.90;99.90;;;;;;5053839;28;20032;-82
2023/04/07 07:47:30;;;;;;;42.00;23.83;;;4.90;99.90;;;;;;5053656;28;20032;-82
2023/04/07 07:49:56;;;;;;;40.47;23.52;;;5.00;99.90;;;;;;5055220;28;20555;-82
2023/04/07 07:52:21;;;;;;;35.13;22.95;;;5.10;99.90;;;;;;5057074;28;20024;-82
2023/04/07 07:54:49;;;;;;;44.25;24.38;;;5.10;99.90;;;;;;5056413;28;20142;-82
2023/04/07 07:57:15;;;;;;;43.17;24.23;;;5.20;99.90;;;;;;5053904;28;20059;-81
2023/04/07 07:59:40;;;;;;;35.08;22.10;;;5.40;99.90;;;;;;5053684;28;20061;-82
2023/04/07 08:02:07;;;;;;;39.88;23.17;;;5.50;99.90;;;;;;5050500;28;20066;-82
2023/04/07 08:04:32;;;;;;;39.78;22.95;;;5.60;99.90;;;;;;5053559;28;20024;-81
2023/04/07 08:06:58;;;;;;;35.15;22.35;;;5.70;99.90;;;;;;5054402;28;20083;-82
2023/04/07 08:09:24;;;;;;;34.75;22.48;;;5.70;99.90;;;;;;5057198;28;20532;-80
2023/04/07 08:11:51;;;;;;;33.22;22.75;;;5.80;99.90;;;;;;5054915;28;20064;-82
2023/04/07 08:14:17;;;;;;;34.28;21.38;;;5.90;99.90;;;;;;5054468;28;20044;-82
2023/04/07 08:16:43;;;;;;;27.77;18.52;;;6.00;99.90;;;;;;5060153;28;20470;-82
2023/04/07 08:19:09;;;;;;;32.08;20.20;;;6.00;99.90;;;;;;5051344;28;20033;-82
2023/04/07 08:21:34;;;;;;;27.05;19.00;;;6.10;99.90;;;;;;5052260;28;20086;-81
2023/04/07 08:24:05;;;;;;;28.65;19.40;;;6.20;99.90;;;;;;5055326;28;20036;-81
2023/04/07 08:26:34;;;;;;;39.85;20.15;;;6.30;99.90;;;;;;5050842;28;20531;-82
2023/04/07 08:28:59;;;;;;;33.13;18.75;;;6.30;99.90;;;;;;5054627;28;20041;-82
2023/04/07 08:31:25;;;;;;;30.83;18.20;;;6.30;99.90;;;;;;5054319;28;20021;-83
2023/04/07 08:33:56;;;;;;;28.90;17.35;;;6.40;99.90;;;;;;5052816;28;20476;-82
2023/04/07 08:36:26;;;;;;;26.15;16.02;;;6.40;99.90;;;;;;5053937;28;20025;-82
2023/04/07 08:38:52;;;;;;;21.33;14.18;;;6.50;99.90;;;;;;5053553;28;20028;-82
2023/04/07 08:41:27;;;;;;;26.75;16.85;;;6.50;99.90;;;;;;5057528;28;20512;-82
2023/04/07 08:43:56;;;;;;;29.40;14.77;;;6.50;99.90;;;;;;5055446;28;20029;-82
2023/04/07 08:46:22;;;;;;;25.60;14.88;;;6.60;99.90;;;;;;5056185;28;20037;-82
2023/04/07 08:48:51;;;;;;;29.17;16.40;;;6.60;99.90;;;;;;5056631;28;20021;-82
2023/04/07 08:51:30;;;;;;;22.63;14.23;;;6.70;99.90;;;;;;5055613;28;20393;-82
2023/04/07 08:54:05;;;;;;;26.40;14.82;;;6.80;99.90;;;;;;5056322;28;20473;-81
2023/04/07 08:56:32;;;;;;;22.75;13.00;;;6.90;99.90;;;;;;5054459;28;20043;-82
2023/04/07 08:59:01;;;;;;;27.23;13.38;;;7.10;99.90;;;;;;5051175;28;20512;-83
2023/04/07 09:01:28;;;;;;;23.13;13.65;;;7.30;99.90;;;;;;5051123;28;20040;-84
2023/04/07 09:03:56;;;;;;;24.92;12.90;;;7.40;99.90;;;;;;5053127;28;20111;-82
2023/04/07 09:06:22;;;;;;;22.80;12.10;;;7.60;99.90;;;;;;5055508;28;20079;-81
2023/04/07 09:08:47;;;;;;;24.05;12.48;;;7.70;99.90;;;;;;5056290;28;20513;-83
2023/04/07 09:11:13;;;;;;;21.08;13.48;;;7.80;99.90;;;;;;5059768;28;20024;-82
2023/04/07 09:13:38;;;;;;;18.73;11.10;;;8.00;99.90;;;;;;5059863;28;20086;-82
2023/04/07 09:16:05;;;;;;;23.63;12.30;;;8.10;99.90;;;;;;5056519;28;20009;-82
2023/04/07 09:18:31;;;;;;;21.75;12.90;;;8.20;99.90;;;;;;5056490;28;20094;-82
2023/04/07 09:20:57;;;;;;;22.10;12.90;;;8.20;99.90;;;;;;5056295;28;20477;-83
2023/04/07 09:23:55;;;;;;;20.10;11.65;;;8.30;99.90;;;;;;5059446;28;20028;-81
2023/04/07 09:26:27;;;;;;;26.40;13.50;;;8.40;99.90;;;;;;5054276;28;20036;-82
2023/04/07 09:28:59;;;;;;;23.02;13.07;;;8.50;99.90;;;;;;5058422;28;20036;-82
2023/04/07 09:31:47;;;;;;;19.02;11.30;;;8.50;99.90;;;;;;5059576;28;20074;-82
2023/04/07 09:34:31;;;;;;;20.35;12.07;;;8.60;99.90;;;;;;5057965;28;20119;-83
2023/04/07 09:36:57;;;;;;;25.75;12.35;;;8.60;99.90;;;;;;5056524;28;20033;-82
2023/04/07 09:39:23;;;;;;;23.52;12.40;;;8.50;99.90;;;;;;5056653;28;20045;-82
2023/04/07 09:41:49;;;;;;;21.20;12.27;;;8.50;99.90;;;;;;5056920;28;20416;-82
2023/04/07 09:44:15;;;;;;;21.05;12.30;;;8.60;99.90;;;;;;5056068;28;20107;-81
2023/04/07 09:47:07;;;;;;;20.10;10.85;;;8.60;99.90;;;;;;5055893;28;20047;-82
2023/04/07 09:49:52;;;;;;;18.70;10.88;;;8.70;99.90;;;;;;5052288;28;20040;-83
2023/04/07 09:52:22;;;;;;;18.10;10.88;;;8.80;99.90;;;;;;5056532;28;20032;-81
2023/04/07 09:54:48;;;;;;;23.42;10.60;;;8.90;99.90;;;;;;5063761;28;20041;-82
2023/04/07 09:57:16;;;;;;;19.83;11.25;;;9.00;99.90;;;;;;5052325;28;20081;-82
2023/04/07 09:59:43;;;;;;;19.25;10.30;;;9.10;99.90;;;;;;5060451;28;20141;-84
2023/04/07 10:02:10;;;;;;;17.70;10.35;;;9.10;99.90;;;;;;5055892;28;20075;-82
2023/04/07 10:04:40;;;;;;;22.13;10.50;;;9.10;99.90;;;;;;5048860;28;20029;-83
2023/04/07 10:07:06;;;;;;;16.25;9.98;;;9.20;99.90;;;;;;5056969;28;20108;-83
2023/04/07 10:09:31;;;;;;;21.52;11.15;;;9.20;99.90;;;;;;5055984;28;20037;-83
2023/04/07 10:11:58;;;;;;;21.90;11.35;;;9.30;99.90;;;;;;5063833;28;20029;-82
2023/04/07 10:14:30;;;;;;;20.58;10.63;;;9.20;99.90;;;;;;5057724;28;20132;-82
2023/04/07 10:16:56;;;;;;;19.08;9.90;;;9.20;98.90;;;;;;5046686;28;20120;-81
2023/04/07 10:19:23;;;;;;;23.42;11.68;;;9.30;98.00;;;;;;5056415;28;20025;-82
2023/04/07 10:21:52;;;;;;;21.27;11.65;;;9.20;99.90;;;;;;5055847;28;20060;-81
2023/04/07 10:24:48;;;;;;;22.10;10.18;;;9.30;99.90;;;;;;5047830;28;20381;-83
2023/04/07 10:27:24;;;;;;;17.83;10.70;;;9.30;99.90;;;;;;5053966;28;20444;-82
2023/04/07 10:29:52;;;;;;;22.40;10.70;;;9.40;99.90;;;;;;5054850;28;20515;-83
2023/04/07 10:32:18;;;;;;;17.95;9.80;;;9.40;99.90;;;;;;5052927;28;20023;-82
2023/04/07 10:34:53;;;;;;;18.23;9.98;;;9.50;99.90;;;;;;5060409;28;20021;-82
2023/04/07 10:37:21;;;;;;;18.38;10.05;;;9.50;98.70;;;;;;5049457;28;20382;-83
2023/04/07 10:40:12;;;;;;;17.00;10.30;;;9.50;99.90;;;;;;5057804;28;20107;-82
2023/04/07 10:42:38;;;;;;;16.45;9.25;;;9.60;99.90;;;;;;5043052;28;20405;-83
2023/04/07 10:45:08;;;;;;;21.80;10.20;;;9.60;99.90;;;;;;5055950;28;20028;-82
2023/04/07 10:47:35;;;;;;;20.30;10.63;;;9.60;99.90;;;;;;5055402;28;20036;-81
2023/04/07 10:50:21;;;;;;;21.02;9.18;;;9.70;99.90;;;;;;5057377;28;20033;-81
2023/04/07 10:53:11;;;;;;;19.63;9.15;;;9.70;99.90;;;;;;5048924;28;20041;-81
2023/04/07 10:55:46;;;;;;;16.90;9.77;;;9.80;99.90;;;;;;5051476;28;20075;-82
2023/04/07 10:58:21;;;;;;;18.25;9.00;;;9.70;99.90;;;;;;5056496;28;20025;-81
2023/04/07 11:00:59;;;;;;;18.25;10.18;;;9.70;99.90;;;;;;5054819;28;20542;-81
2023/04/07 11:03:25;;;;;;;17.92;9.85;;;9.80;97.90;;;;;;5057380;28;20067;-82
2023/04/07 11:06:14;;;;;;;18.08;8.90;;;9.70;99.90;;;;;;5058433;28;20024;-82
2023/04/07 11:08:44;;;;;;;18.35;9.40;;;9.70;99.90;;;;;;5056321;28;20537;-82
2023/04/07 11:11:11;;;;;;;17.55;9.63;;;9.70;99.90;;;;;;5054620;28;20039;-82
2023/04/07 11:13:46;;;;;;;22.25;10.55;;;9.70;99.90;;;;;;5062026;28;20020;-84
2023/04/07 11:16:12;;;;;;;17.20;9.80;;;9.80;99.60;;;;;;5055784;28;20021;-83
2023/04/07 11:18:39;;;;;;;19.83;9.15;;;9.80;95.40;;;;;;5053625;28;20059;-82
2023/04/07 11:21:05;;;;;;;19.77;10.30;;;9.70;95.90;;;;;;5056509;28;20031;-83
2023/04/07 11:23:42;;;;;;;17.98;9.70;;;9.70;99.10;;;;;;5055360;28;20028;-84
2023/04/07 11:26:12;;;;;;;18.02;9.68;;;9.70;99.90;;;;;;5047534;28;20033;-81
2023/04/07 11:28:52;;;;;;;18.08;9.38;;;9.80;98.00;;;;;;5053328;28;20025;-82
2023/04/07 11:31:25;;;;;;;19.38;8.93;;;9.90;96.60;;;;;;5057603;28;20024;-82
2023/04/07 11:33:52;;;;;;;21.15;10.05;;;9.90;97.00;;;;;;5056459;28;20477;-82
2023/04/07 11:36:29;;;;;;;21.92;10.38;;;9.90;98.10;;;;;;5056415;28;20481;-82
2023/04/07 11:38:56;;;;;;;19.85;10.52;;;9.90;99.90;;;;;;5049047;28;20033;-81
2023/04/07 11:41:24;;;;;;;17.98;10.32;;;10.00;99.90;;;;;;5056183;28;20078;-82
2023/04/07 11:44:03;;;;;;;27.05;10.95;;;10.00;99.60;;;;;;5058016;28;20032;-81
2023/04/07 11:46:29;;;;;;;19.63;11.43;;;10.00;99.90;;;;;;5047869;28;20029;-82
2023/04/07 11:49:06;;;;;;;21.50;10.85;;;10.10;99.90;;;;;;5055682;28;20028;-83
2023/04/07 11:51:32;;;;;;;20.05;10.85;;;10.10;99.90;;;;;;5056940;28;20037;-82
2023/04/07 11:53:58;;;;;;;20.92;11.88;;;10.20;99.90;;;;;;5055947;28;20090;-82
2023/04/07 11:56:23;;;;;;;17.88;9.38;;;10.20;99.90;;;;;;5046528;28;20107;-81
2023/04/07 11:58:54;;;;;;;18.00;10.95;;;10.20;99.90;;;;;;5054808;28;20040;-82
2023/04/07 12:01:23;;;;;;;19.88;11.80;;;10.20;99.90;;;;;;5055701;28;20497;-82
2023/04/07 12:04:03;;;;;;;21.73;12.20;;;10.30;99.90;;;;;;5053010;28;20021;-81
2023/04/07 12:06:33;;;;;;;21.15;12.45;;;10.30;99.90;;;;;;5052996;28;20497;-82
2023/04/07 12:09:02;;;;;;;18.70;10.95;;;10.40;99.90;;;;;;5056198;28;20496;-82
2023/04/07 12:11:28;;;;;;;21.73;11.38;;;10.40;99.90;;;;;;5052258;28;20478;-82
2023/04/07 12:13:55;;;;;;;17.45;10.93;;;10.40;98.40;;;;;;5056004;28;20112;-82
2023/04/07 12:16:21;;;;;;;18.27;10.35;;;10.50;98.40;;;;;;5057481;28;20027;-82
2023/04/07 12:18:48;;;;;;;20.60;11.45;;;10.40;99.90;;;;;;5054562;28;20031;-83
2023/04/07 12:21:13;;;;;;;21.85;11.75;;;10.50;99.90;;;;;;5054723;28;20500;-81
2023/04/07 12:23:39;;;;;;;23.02;12.27;;;10.50;99.90;;;;;;5055444;28;20037;-81
2023/04/07 12:26:05;;;;;;;18.10;11.20;;;10.60;99.90;;;;;;5050706;28;20051;-83
2023/04/07 12:28:31;;;;;;;19.10;11.95;;;10.60;98.60;;;;;;5055367;28;20029;-82
2023/04/07 12:30:57;;;;;;;21.83;11.48;;;10.50;99.00;;;;;;5061607;28;20389;-83
2023/04/07 12:33:23;;;;;;;19.95;10.90;;;10.50;99.90;;;;;;5055401;28;20395;-82
2023/04/07 12:35:49;;;;;;;19.88;10.68;;;10.50;99.90;;;;;;5056314;28;20133;-83
2023/04/07 12:38:14;;;;;;;21.65;11.25;;;10.70;99.90;;;;;;5053369;28;20489;-82
2023/04/07 12:40:40;;;;;;;20.25;12.10;;;10.70;99.40;;;;;;5056694;28;20052;-82
2023/04/07 12:43:06;;;;;;;24.38;12.95;;;10.80;98.30;;;;;;5058314;28;20445;-82